This is the latest recevied weather packets stored in our database for station/object N6SPP. If no packets are shown the sender has not sent any weather packets the latest 1 day(s).
| Time | Temp. | Humidity | Pressure | Rain* | Wind** | Luminosity | Snow |
|---|---|---|---|---|---|---|---|
| 1778033514 | 16.11° C | 75% | 1017.8 hPa | 0 mm | 0 m/s | 24 W/m² | - |
| 1778033211 | 16.11° C | 75% | 1017.5 hPa | 0 mm | 1.34 m/s, 275° | 28 W/m² | - |
| 1778032909 | 16.11° C | 74% | 1017.5 hPa | 0 mm | 1.79 m/s, 218° | 31 W/m² | - |
| 1778032606 | 16.11° C | 74% | 1017.6 hPa | 0 mm | 1.34 m/s, 111° | 31 W/m² | - |
| 1778032303 | 16.67° C | 74% | 1017.4 hPa | 0 mm | 3.13 m/s, 187° | 34 W/m² | - |
| 1778031995 | 16.67° C | 74% | 1017.6 hPa | 0 mm | 1.79 m/s, 168° | 47 W/m² | - |
| 1778031691 | 16.67° C | 73% | 1017.5 hPa | 0 mm | 1.34 m/s, 190° | 53 W/m² | - |
| 1778031389 | 16.67° C | 73% | 1017.4 hPa | 0 mm | 1.79 m/s, 216° | 62 W/m² | - |
| 1778031086 | 16.67° C | 73% | 1017.5 hPa | 0 mm | 2.68 m/s, 208° | 74 W/m² | - |
| 1778030781 | 17.22° C | 73% | 1017.3 hPa | 0 mm | 1.79 m/s, 184° | 89 W/m² | - |
| 1778030478 | 17.22° C | 73% | 1017.4 hPa | 0 mm | 1.79 m/s, 150° | 101 W/m² | - |
| 1778030176 | 17.22° C | 72% | 1017.2 hPa | 0 mm | 1.34 m/s, 179° | 110 W/m² | - |
| 1778029872 | 17.22° C | 72% | 1017.4 hPa | 0 mm | 1.79 m/s, 202° | 117 W/m² | - |
| 1778029566 | 17.22° C | 72% | 1017.3 hPa | 0 mm | 2.24 m/s, 205° | 120 W/m² | - |
| 1778029262 | 17.78° C | 72% | 1017.5 hPa | 0 mm | 0.89 m/s, 162° | 115 W/m² | - |
| 1778028959 | 17.78° C | 71% | 1017.4 hPa | 0 mm | 1.34 m/s, 197° | 147 W/m² | - |
| 1778028654 | 18.89° C | 68% | 1017.1 hPa | 0 mm | 1.34 m/s, 248° | 187 W/m² | - |
| 1778028347 | 18.33° C | 68% | 1017.3 hPa | 0 mm | 0.89 m/s, 234° | 204 W/m² | - |
| 1778028047 | 18.33° C | 68% | 1017.2 hPa | 0 mm | 2.24 m/s, 246° | 250 W/m² | - |
| 1778027740 | 18.33° C | 69% | 1017.4 hPa | 0 mm | 1.79 m/s, 148° | 215 W/m² | - |
| 1778027436 | 17.78° C | 69% | 1017.2 hPa | 0 mm | 1.79 m/s, 149° | 295 W/m² | - |
| 1778027132 | 17.78° C | 69% | 1017.3 hPa | 0 mm | 1.79 m/s, 216° | 143 W/m² | - |
| 1778026828 | 17.78° C | 69% | 1017.1 hPa | 0 mm | 1.79 m/s, 206° | 140 W/m² | - |
| 1778026525 | 17.78° C | 69% | 1017.1 hPa | 0 mm | 0.89 m/s, 144° | 188 W/m² | - |
| 1778026222 | 18.33° C | 69% | 1017.1 hPa | 0 mm | 1.79 m/s, 246° | 220 W/m² | - |
* Rain latest hour (hover to see other rain measurements)
** Current wind speed in m/s (hover to see current wind gust speed)